sensor_id;sensor_type;location;lat;lon;timestamp;P1;durP1;ratioP1;P2;durP2;ratioP2
37241;SDS011;23135;51.078;12.108;2024-02-26T00:02:13;5.18;;;3.47;;
37241;SDS011;23135;51.078;12.108;2024-02-26T00:04:39;10.10;;;5.22;;
37241;SDS011;23135;51.078;12.108;2024-02-26T00:07:05;5.45;;;3.50;;
37241;SDS011;23135;51.078;12.108;2024-02-26T00:09:30;8.05;;;4.43;;
37241;SDS011;23135;51.078;12.108;2024-02-26T00:11:56;9.82;;;4.70;;
37241;SDS011;23135;51.078;12.108;2024-02-26T00:14:22;6.57;;;3.90;;
37241;SDS011;23135;51.078;12.108;2024-02-26T00:16:48;9.02;;;4.90;;
37241;SDS011;23135;51.078;12.108;2024-02-26T00:19:14;8.32;;;4.03;;
37241;SDS011;23135;51.078;12.108;2024-02-26T00:21:40;9.98;;;4.22;;
37241;SDS011;23135;51.078;12.108;2024-02-26T00:24:07;7.93;;;4.15;;
37241;SDS011;23135;51.078;12.108;2024-02-26T00:26:32;14.00;;;5.05;;
37241;SDS011;23135;51.078;12.108;2024-02-26T00:28:58;15.48;;;5.68;;
37241;SDS011;23135;51.078;12.108;2024-02-26T00:31:23;8.20;;;4.18;;
37241;SDS011;23135;51.078;12.108;2024-02-26T00:33:49;6.80;;;3.58;;
37241;SDS011;23135;51.078;12.108;2024-02-26T00:36:14;8.63;;;4.32;;
37241;SDS011;23135;51.078;12.108;2024-02-26T00:38:40;6.07;;;2.97;;
37241;SDS011;23135;51.078;12.108;2024-02-26T00:41:07;7.07;;;3.67;;
37241;SDS011;23135;51.078;12.108;2024-02-26T00:43:33;7.50;;;3.53;;
37241;SDS011;23135;51.078;12.108;2024-02-26T00:45:59;11.20;;;4.53;;
37241;SDS011;23135;51.078;12.108;2024-02-26T00:48:25;8.13;;;3.85;;
37241;SDS011;23135;51.078;12.108;2024-02-26T00:50:51;8.32;;;4.20;;
37241;SDS011;23135;51.078;12.108;2024-02-26T00:53:17;8.02;;;3.95;;
37241;SDS011;23135;51.078;12.108;2024-02-26T00:55:42;8.05;;;4.63;;
37241;SDS011;23135;51.078;12.108;2024-02-26T00:58:09;16.23;;;6.22;;
37241;SDS011;23135;51.078;12.108;2024-02-26T01:00:34;12.50;;;6.07;;
37241;SDS011;23135;51.078;12.108;2024-02-26T01:03:00;15.57;;;7.28;;
37241;SDS011;23135;51.078;12.108;2024-02-26T01:05:25;16.55;;;8.35;;
37241;SDS011;23135;51.078;12.108;2024-02-26T01:07:51;19.25;;;9.02;;
37241;SDS011;23135;51.078;12.108;2024-02-26T01:10:17;20.98;;;9.85;;
37241;SDS011;23135;51.078;12.108;2024-02-26T01:12:42;22.02;;;10.88;;
37241;SDS011;23135;51.078;12.108;2024-02-26T01:15:08;26.70;;;11.70;;
37241;SDS011;23135;51.078;12.108;2024-02-26T01:17:34;28.58;;;14.10;;
37241;SDS011;23135;51.078;12.108;2024-02-26T01:19:59;26.42;;;14.45;;
37241;SDS011;23135;51.078;12.108;2024-02-26T01:22:25;26.42;;;13.43;;
37241;SDS011;23135;51.078;12.108;2024-02-26T01:24:50;26.65;;;12.40;;
37241;SDS011;23135;51.078;12.108;2024-02-26T01:27:16;28.08;;;11.75;;
37241;SDS011;23135;51.078;12.108;2024-02-26T01:29:42;27.42;;;13.40;;
37241;SDS011;23135;51.078;12.108;2024-02-26T01:32:07;28.42;;;14.18;;
37241;SDS011;23135;51.078;12.108;2024-02-26T01:34:33;30.08;;;14.60;;
37241;SDS011;23135;51.078;12.108;2024-02-26T01:36:59;33.28;;;16.60;;
37241;SDS011;23135;51.078;12.108;2024-02-26T01:39:25;30.27;;;16.23;;
37241;SDS011;23135;51.078;12.108;2024-02-26T01:41:52;33.53;;;16.88;;
37241;SDS011;23135;51.078;12.108;2024-02-26T01:44:18;34.03;;;16.88;;
37241;SDS011;23135;51.078;12.108;2024-02-26T01:46:44;34.75;;;17.48;;
37241;SDS011;23135;51.078;12.108;2024-02-26T01:49:11;38.42;;;16.38;;
37241;SDS011;23135;51.078;12.108;2024-02-26T01:51:38;34.92;;;18.48;;
37241;SDS011;23135;51.078;12.108;2024-02-26T01:54:06;38.17;;;18.10;;
37241;SDS011;23135;51.078;12.108;2024-02-26T01:56:33;39.83;;;19.08;;
37241;SDS011;23135;51.078;12.108;2024-02-26T01:59:00;38.17;;;17.88;;
37241;SDS011;23135;51.078;12.108;2024-02-26T02:01:27;37.53;;;19.00;;
37241;SDS011;23135;51.078;12.108;2024-02-26T02:03:59;34.80;;;18.02;;
37241;SDS011;23135;51.078;12.108;2024-02-26T02:06:25;41.08;;;17.80;;
37241;SDS011;23135;51.078;12.108;2024-02-26T02:08:53;34.35;;;17.27;;
37241;SDS011;23135;51.078;12.108;2024-02-26T02:11:19;35.53;;;16.70;;
37241;SDS011;23135;51.078;12.108;2024-02-26T02:13:45;34.53;;;16.55;;
37241;SDS011;23135;51.078;12.108;2024-02-26T02:16:11;38.67;;;17.80;;
37241;SDS011;23135;51.078;12.108;2024-02-26T02:18:37;36.13;;;17.73;;
37241;SDS011;23135;51.078;12.108;2024-02-26T02:21:02;35.13;;;16.17;;
37241;SDS011;23135;51.078;12.108;2024-02-26T02:23:28;34.95;;;17.05;;
37241;SDS011;23135;51.078;12.108;2024-02-26T02:25:54;36.08;;;16.25;;
37241;SDS011;23135;51.078;12.108;2024-02-26T02:28:22;34.65;;;17.00;;
37241;SDS011;23135;51.078;12.108;2024-02-26T02:30:50;32.97;;;16.75;;
37241;SDS011;23135;51.078;12.108;2024-02-26T02:33:16;36.00;;;16.13;;
37241;SDS011;23135;51.078;12.108;2024-02-26T02:35:41;32.55;;;15.68;;
37241;SDS011;23135;51.078;12.108;2024-02-26T02:38:07;36.95;;;16.63;;
37241;SDS011;23135;51.078;12.108;2024-02-26T02:40:32;38.95;;;16.75;;
37241;SDS011;23135;51.078;12.108;2024-02-26T02:42:58;30.52;;;15.15;;
37241;SDS011;23135;51.078;12.108;2024-02-26T02:45:24;33.15;;;15.73;;
37241;SDS011;23135;51.078;12.108;2024-02-26T02:47:50;32.83;;;16.60;;
37241;SDS011;23135;51.078;12.108;2024-02-26T02:50:16;31.83;;;16.23;;
37241;SDS011;23135;51.078;12.108;2024-02-26T02:52:41;34.90;;;16.30;;
37241;SDS011;23135;51.078;12.108;2024-02-26T02:55:07;34.90;;;17.85;;
37241;SDS011;23135;51.078;12.108;2024-02-26T02:57:33;33.30;;;14.57;;
37241;SDS011;23135;51.078;12.108;2024-02-26T02:59:59;30.95;;;16.25;;
37241;SDS011;23135;51.078;12.108;2024-02-26T03:02:24;37.85;;;16.75;;
37241;SDS011;23135;51.078;12.108;2024-02-26T03:04:50;35.42;;;15.90;;
37241;SDS011;23135;51.078;12.108;2024-02-26T03:07:16;36.45;;;15.57;;
37241;SDS011;23135;51.078;12.108;2024-02-26T03:09:41;35.53;;;16.85;;
37241;SDS011;23135;51.078;12.108;2024-02-26T03:12:07;38.10;;;18.23;;
37241;SDS011;23135;51.078;12.108;2024-02-26T03:14:33;43.20;;;17.90;;
37241;SDS011;23135;51.078;12.108;2024-02-26T03:16:58;36.65;;;15.73;;
37241;SDS011;23135;51.078;12.108;2024-02-26T03:19:24;34.97;;;17.20;;
37241;SDS011;23135;51.078;12.108;2024-02-26T03:21:49;35.35;;;16.48;;
37241;SDS011;23135;51.078;12.108;2024-02-26T03:24:15;39.65;;;18.20;;
37241;SDS011;23135;51.078;12.108;2024-02-26T03:26:40;40.30;;;17.33;;
37241;SDS011;23135;51.078;12.108;2024-02-26T03:29:06;38.28;;;18.15;;
37241;SDS011;23135;51.078;12.108;2024-02-26T03:31:31;34.38;;;14.93;;
37241;SDS011;23135;51.078;12.108;2024-02-26T03:33:57;33.90;;;15.63;;
37241;SDS011;23135;51.078;12.108;2024-02-26T03:36:22;30.45;;;16.35;;
37241;SDS011;23135;51.078;12.108;2024-02-26T03:38:48;39.35;;;17.63;;
37241;SDS011;23135;51.078;12.108;2024-02-26T03:41:14;40.20;;;17.63;;
37241;SDS011;23135;51.078;12.108;2024-02-26T03:43:39;34.10;;;16.45;;
37241;SDS011;23135;51.078;12.108;2024-02-26T03:46:08;37.17;;;17.33;;
37241;SDS011;23135;51.078;12.108;2024-02-26T03:48:36;34.25;;;16.50;;
37241;SDS011;23135;51.078;12.108;2024-02-26T03:51:02;39.45;;;17.83;;
37241;SDS011;23135;51.078;12.108;2024-02-26T03:53:27;40.70;;;17.08;;
37241;SDS011;23135;51.078;12.108;2024-02-26T03:55:53;33.00;;;15.43;;
37241;SDS011;23135;51.078;12.108;2024-02-26T03:58:20;37.13;;;18.75;;
37241;SDS011;23135;51.078;12.108;2024-02-26T04:00:46;40.03;;;17.40;;
37241;SDS011;23135;51.078;12.108;2024-02-26T04:03:12;33.20;;;16.90;;
37241;SDS011;23135;51.078;12.108;2024-02-26T04:05:38;36.10;;;17.63;;
37241;SDS011;23135;51.078;12.108;2024-02-26T04:08:04;38.28;;;19.88;;
37241;SDS011;23135;51.078;12.108;2024-02-26T04:10:32;40.22;;;18.58;;
37241;SDS011;23135;51.078;12.108;2024-02-26T04:13:00;35.22;;;15.55;;
37241;SDS011;23135;51.078;12.108;2024-02-26T04:15:25;44.15;;;17.33;;
37241;SDS011;23135;51.078;12.108;2024-02-26T04:17:51;40.13;;;18.83;;
37241;SDS011;23135;51.078;12.108;2024-02-26T04:20:16;36.45;;;17.13;;
37241;SDS011;23135;51.078;12.108;2024-02-26T04:22:42;41.45;;;18.10;;
37241;SDS011;23135;51.078;12.108;2024-02-26T04:25:08;36.80;;;18.33;;
37241;SDS011;23135;51.078;12.108;2024-02-26T04:27:33;37.65;;;17.85;;
37241;SDS011;23135;51.078;12.108;2024-02-26T04:29:59;41.20;;;19.70;;
37241;SDS011;23135;51.078;12.108;2024-02-26T04:32:25;40.53;;;17.73;;
37241;SDS011;23135;51.078;12.108;2024-02-26T04:34:50;39.33;;;18.90;;
37241;SDS011;23135;51.078;12.108;2024-02-26T04:37:16;36.92;;;17.50;;
37241;SDS011;23135;51.078;12.108;2024-02-26T04:39:41;45.72;;;18.52;;
37241;SDS011;23135;51.078;12.108;2024-02-26T04:42:07;39.75;;;17.45;;
37241;SDS011;23135;51.078;12.108;2024-02-26T04:44:32;35.67;;;17.55;;
37241;SDS011;23135;51.078;12.108;2024-02-26T04:46:58;34.20;;;16.92;;
37241;SDS011;23135;51.078;12.108;2024-02-26T04:49:23;39.65;;;17.20;;
37241;SDS011;23135;51.078;12.108;2024-02-26T04:51:49;36.40;;;15.45;;
37241;SDS011;23135;51.078;12.108;2024-02-26T04:54:14;37.97;;;16.60;;
37241;SDS011;23135;51.078;12.108;2024-02-26T04:56:40;37.05;;;17.30;;
37241;SDS011;23135;51.078;12.108;2024-02-26T04:59:06;35.17;;;14.95;;
37241;SDS011;23135;51.078;12.108;2024-02-26T05:01:31;33.17;;;16.33;;
37241;SDS011;23135;51.078;12.108;2024-02-26T05:03:57;35.08;;;17.17;;
37241;SDS011;23135;51.078;12.108;2024-02-26T05:06:22;35.95;;;17.48;;
37241;SDS011;23135;51.078;12.108;2024-02-26T05:08:48;38.25;;;16.05;;
37241;SDS011;23135;51.078;12.108;2024-02-26T05:11:13;34.13;;;17.27;;
37241;SDS011;23135;51.078;12.108;2024-02-26T05:13:39;35.55;;;17.65;;
37241;SDS011;23135;51.078;12.108;2024-02-26T05:16:04;34.20;;;17.17;;
37241;SDS011;23135;51.078;12.108;2024-02-26T05:18:30;35.13;;;16.05;;
37241;SDS011;23135;51.078;12.108;2024-02-26T05:20:56;33.53;;;16.25;;
37241;SDS011;23135;51.078;12.108;2024-02-26T05:23:21;34.30;;;15.90;;
37241;SDS011;23135;51.078;12.108;2024-02-26T05:25:48;37.38;;;17.40;;
37241;SDS011;23135;51.078;12.108;2024-02-26T05:28:14;36.90;;;18.30;;
37241;SDS011;23135;51.078;12.108;2024-02-26T05:30:40;42.53;;;19.30;;
37241;SDS011;23135;51.078;12.108;2024-02-26T05:33:07;36.42;;;18.20;;
37241;SDS011;23135;51.078;12.108;2024-02-26T05:35:32;36.10;;;16.98;;
37241;SDS011;23135;51.078;12.108;2024-02-26T05:37:58;36.42;;;17.27;;
37241;SDS011;23135;51.078;12.108;2024-02-26T05:40:24;35.42;;;17.17;;
37241;SDS011;23135;51.078;12.108;2024-02-26T05:42:49;31.85;;;15.95;;
37241;SDS011;23135;51.078;12.108;2024-02-26T05:45:15;33.65;;;16.45;;
37241;SDS011;23135;51.078;12.108;2024-02-26T05:47:40;37.10;;;16.98;;
37241;SDS011;23135;51.078;12.108;2024-02-26T05:50:10;33.42;;;15.18;;
37241;SDS011;23135;51.078;12.108;2024-02-26T05:52:37;34.70;;;16.65;;
37241;SDS011;23135;51.078;12.108;2024-02-26T05:55:03;34.55;;;16.50;;
37241;SDS011;23135;51.078;12.108;2024-02-26T05:57:30;37.65;;;17.92;;
37241;SDS011;23135;51.078;12.108;2024-02-26T05:59:56;33.20;;;17.05;;
37241;SDS011;23135;51.078;12.108;2024-02-26T06:02:21;31.95;;;15.80;;
37241;SDS011;23135;51.078;12.108;2024-02-26T06:04:47;34.60;;;16.15;;
37241;SDS011;23135;51.078;12.108;2024-02-26T06:07:12;33.65;;;16.38;;
37241;SDS011;23135;51.078;12.108;2024-02-26T06:09:38;31.73;;;15.88;;
37241;SDS011;23135;51.078;12.108;2024-02-26T06:12:04;41.13;;;18.77;;
37241;SDS011;23135;51.078;12.108;2024-02-26T06:14:30;34.70;;;16.90;;
37241;SDS011;23135;51.078;12.108;2024-02-26T06:16:55;36.13;;;17.52;;
37241;SDS011;23135;51.078;12.108;2024-02-26T06:19:21;34.45;;;16.48;;
37241;SDS011;23135;51.078;12.108;2024-02-26T06:21:47;35.97;;;16.73;;
37241;SDS011;23135;51.078;12.108;2024-02-26T06:24:12;36.45;;;17.73;;
37241;SDS011;23135;51.078;12.108;2024-02-26T06:26:38;34.25;;;17.45;;
37241;SDS011;23135;51.078;12.108;2024-02-26T06:29:03;40.40;;;18.42;;
37241;SDS011;23135;51.078;12.108;2024-02-26T06:31:29;48.28;;;21.17;;
37241;SDS011;23135;51.078;12.108;2024-02-26T06:33:54;40.85;;;18.10;;
37241;SDS011;23135;51.078;12.108;2024-02-26T06:36:21;36.97;;;18.15;;
37241;SDS011;23135;51.078;12.108;2024-02-26T06:38:48;33.00;;;17.38;;
37241;SDS011;23135;51.078;12.108;2024-02-26T06:41:14;37.28;;;18.13;;
37241;SDS011;23135;51.078;12.108;2024-02-26T06:43:40;33.97;;;17.20;;
37241;SDS011;23135;51.078;12.108;2024-02-26T06:46:05;38.70;;;16.85;;
37241;SDS011;23135;51.078;12.108;2024-02-26T06:48:32;34.75;;;16.80;;
37241;SDS011;23135;51.078;12.108;2024-02-26T06:50:57;36.75;;;17.05;;
37241;SDS011;23135;51.078;12.108;2024-02-26T06:53:23;37.45;;;16.33;;
37241;SDS011;23135;51.078;12.108;2024-02-26T06:55:48;37.10;;;17.83;;
37241;SDS011;23135;51.078;12.108;2024-02-26T06:58:15;33.47;;;17.00;;
37241;SDS011;23135;51.078;12.108;2024-02-26T07:00:41;37.17;;;17.42;;
37241;SDS011;23135;51.078;12.108;2024-02-26T07:03:06;38.53;;;18.20;;
37241;SDS011;23135;51.078;12.108;2024-02-26T07:05:32;46.72;;;18.65;;
37241;SDS011;23135;51.078;12.108;2024-02-26T07:07:57;38.75;;;17.27;;
37241;SDS011;23135;51.078;12.108;2024-02-26T07:10:23;39.20;;;18.48;;
37241;SDS011;23135;51.078;12.108;2024-02-26T07:12:48;37.78;;;17.83;;
37241;SDS011;23135;51.078;12.108;2024-02-26T07:15:15;36.95;;;19.17;;
37241;SDS011;23135;51.078;12.108;2024-02-26T07:17:41;38.47;;;18.88;;
37241;SDS011;23135;51.078;12.108;2024-02-26T07:20:07;37.50;;;18.42;;
37241;SDS011;23135;51.078;12.108;2024-02-26T07:22:34;41.03;;;19.83;;
37241;SDS011;23135;51.078;12.108;2024-02-26T07:24:59;45.75;;;19.83;;
37241;SDS011;23135;51.078;12.108;2024-02-26T07:27:25;37.72;;;18.92;;
37241;SDS011;23135;51.078;12.108;2024-02-26T07:29:50;47.95;;;22.15;;
37241;SDS011;23135;51.078;12.108;2024-02-26T07:32:16;46.42;;;22.38;;
37241;SDS011;23135;51.078;12.108;2024-02-26T07:34:42;43.30;;;21.80;;
37241;SDS011;23135;51.078;12.108;2024-02-26T07:37:09;46.60;;;22.52;;
37241;SDS011;23135;51.078;12.108;2024-02-26T07:39:35;59.03;;;26.55;;
37241;SDS011;23135;51.078;12.108;2024-02-26T07:42:01;43.67;;;20.90;;
37241;SDS011;23135;51.078;12.108;2024-02-26T07:44:27;40.03;;;18.77;;
37241;SDS011;23135;51.078;12.108;2024-02-26T07:46:53;37.28;;;16.95;;
37241;SDS011;23135;51.078;12.108;2024-02-26T07:49:18;38.10;;;17.65;;
37241;SDS011;23135;51.078;12.108;2024-02-26T07:51:44;35.78;;;18.90;;
37241;SDS011;23135;51.078;12.108;2024-02-26T07:54:09;46.10;;;19.13;;
37241;SDS011;23135;51.078;12.108;2024-02-26T07:56:35;41.17;;;21.55;;
37241;SDS011;23135;51.078;12.108;2024-02-26T07:59:00;40.95;;;19.73;;
37241;SDS011;23135;51.078;12.108;2024-02-26T08:01:26;38.15;;;19.45;;
37241;SDS011;23135;51.078;12.108;2024-02-26T08:03:53;39.83;;;17.98;;
37241;SDS011;23135;51.078;12.108;2024-02-26T08:06:18;33.58;;;17.20;;
37241;SDS011;23135;51.078;12.108;2024-02-26T08:08:44;35.42;;;17.10;;
37241;SDS011;23135;51.078;12.108;2024-02-26T08:11:09;31.95;;;16.38;;
37241;SDS011;23135;51.078;12.108;2024-02-26T08:13:35;33.65;;;18.45;;
37241;SDS011;23135;51.078;12.108;2024-02-26T08:16:01;30.80;;;16.58;;
37241;SDS011;23135;51.078;12.108;2024-02-26T08:18:26;33.08;;;17.10;;
37241;SDS011;23135;51.078;12.108;2024-02-26T08:20:52;30.45;;;14.80;;
37241;SDS011;23135;51.078;12.108;2024-02-26T08:23:17;28.20;;;14.57;;
37241;SDS011;23135;51.078;12.108;2024-02-26T08:25:43;21.25;;;12.55;;
37241;SDS011;23135;51.078;12.108;2024-02-26T08:28:09;23.50;;;14.48;;
37241;SDS011;23135;51.078;12.108;2024-02-26T08:30:38;26.33;;;15.18;;
37241;SDS011;23135;51.078;12.108;2024-02-26T08:33:03;23.83;;;14.13;;
37241;SDS011;23135;51.078;12.108;2024-02-26T08:35:29;27.90;;;15.10;;
37241;SDS011;23135;51.078;12.108;2024-02-26T08:37:54;24.80;;;15.13;;
37241;SDS011;23135;51.078;12.108;2024-02-26T08:40:20;27.65;;;14.48;;
37241;SDS011;23135;51.078;12.108;2024-02-26T08:42:46;30.13;;;14.25;;
37241;SDS011;23135;51.078;12.108;2024-02-26T08:45:11;22.92;;;12.73;;
37241;SDS011;23135;51.078;12.108;2024-02-26T08:47:37;25.95;;;13.95;;
37241;SDS011;23135;51.078;12.108;2024-02-26T08:50:03;30.90;;;12.25;;
37241;SDS011;23135;51.078;12.108;2024-02-26T08:52:30;29.02;;;12.90;;
37241;SDS011;23135;51.078;12.108;2024-02-26T08:54:55;25.17;;;12.23;;
37241;SDS011;23135;51.078;12.108;2024-02-26T08:57:22;17.27;;;11.23;;
37241;SDS011;23135;51.078;12.108;2024-02-26T08:59:47;17.60;;;12.02;;
37241;SDS011;23135;51.078;12.108;2024-02-26T09:02:13;23.50;;;14.18;;
37241;SDS011;23135;51.078;12.108;2024-02-26T09:04:39;21.83;;;11.35;;
37241;SDS011;23135;51.078;12.108;2024-02-26T09:07:04;19.23;;;10.52;;
37241;SDS011;23135;51.078;12.108;2024-02-26T09:09:31;19.42;;;11.63;;
37241;SDS011;23135;51.078;12.108;2024-02-26T09:11:56;21.98;;;12.77;;
37241;SDS011;23135;51.078;12.108;2024-02-26T09:14:22;20.73;;;12.52;;
37241;SDS011;23135;51.078;12.108;2024-02-26T09:16:47;16.80;;;11.20;;
37241;SDS011;23135;51.078;12.108;2024-02-26T09:19:13;24.10;;;12.48;;
37241;SDS011;23135;51.078;12.108;2024-02-26T09:21:43;20.45;;;12.45;;
37241;SDS011;23135;51.078;12.108;2024-02-26T09:24:10;18.52;;;11.52;;
37241;SDS011;23135;51.078;12.108;2024-02-26T09:26:38;19.90;;;11.20;;
37241;SDS011;23135;51.078;12.108;2024-02-26T09:29:04;19.80;;;11.73;;
37241;SDS011;23135;51.078;12.108;2024-02-26T09:31:30;19.10;;;11.68;;
37241;SDS011;23135;51.078;12.108;2024-02-26T09:33:56;23.10;;;12.48;;
37241;SDS011;23135;51.078;12.108;2024-02-26T09:36:22;16.83;;;11.05;;
37241;SDS011;23135;51.078;12.108;2024-02-26T09:38:47;27.52;;;11.65;;
37241;SDS011;23135;51.078;12.108;2024-02-26T09:41:14;17.65;;;12.32;;
37241;SDS011;23135;51.078;12.108;2024-02-26T09:43:41;51.15;;;26.33;;
37241;SDS011;23135;51.078;12.108;2024-02-26T09:46:08;28.63;;;16.13;;
37241;SDS011;23135;51.078;12.108;2024-02-26T09:48:34;24.27;;;12.43;;
37241;SDS011;23135;51.078;12.108;2024-02-26T09:51:02;21.20;;;13.30;;
37241;SDS011;23135;51.078;12.108;2024-02-26T09:53:28;25.38;;;14.45;;
37241;SDS011;23135;51.078;12.108;2024-02-26T09:55:58;23.92;;;13.82;;
37241;SDS011;23135;51.078;12.108;2024-02-26T09:58:24;20.10;;;11.88;;
37241;SDS011;23135;51.078;12.108;2024-02-26T10:00:53;25.48;;;13.95;;
37241;SDS011;23135;51.078;12.108;2024-02-26T10:03:23;25.27;;;12.30;;
37241;SDS011;23135;51.078;12.108;2024-02-26T10:05:53;18.70;;;11.98;;
37241;SDS011;23135;51.078;12.108;2024-02-26T10:08:20;21.88;;;12.45;;
37241;SDS011;23135;51.078;12.108;2024-02-26T10:10:47;17.17;;;11.18;;
37241;SDS011;23135;51.078;12.108;2024-02-26T10:13:13;17.98;;;11.98;;
37241;SDS011;23135;51.078;12.108;2024-02-26T10:15:38;18.30;;;12.02;;
37241;SDS011;23135;51.078;12.108;2024-02-26T10:18:07;20.63;;;12.10;;
37241;SDS011;23135;51.078;12.108;2024-02-26T10:20:33;21.65;;;11.57;;
37241;SDS011;23135;51.078;12.108;2024-02-26T10:22:58;21.75;;;12.30;;
37241;SDS011;23135;51.078;12.108;2024-02-26T10:25:28;16.58;;;11.80;;
37241;SDS011;23135;51.078;12.108;2024-02-26T10:27:56;21.73;;;12.52;;
37241;SDS011;23135;51.078;12.108;2024-02-26T10:30:27;16.77;;;11.10;;
37241;SDS011;23135;51.078;12.108;2024-02-26T10:32:53;16.55;;;11.32;;
37241;SDS011;23135;51.078;12.108;2024-02-26T10:35:19;19.67;;;10.93;;
37241;SDS011;23135;51.078;12.108;2024-02-26T10:37:45;17.88;;;10.63;;
37241;SDS011;23135;51.078;12.108;2024-02-26T10:40:12;19.75;;;12.32;;
37241;SDS011;23135;51.078;12.108;2024-02-26T10:42:38;17.42;;;10.88;;
37241;SDS011;23135;51.078;12.108;2024-02-26T10:45:07;18.85;;;11.52;;
37241;SDS011;23135;51.078;12.108;2024-02-26T10:47:34;15.32;;;10.27;;
37241;SDS011;23135;51.078;12.108;2024-02-26T10:50:05;15.70;;;10.85;;
37241;SDS011;23135;51.078;12.108;2024-02-26T10:52:32;16.60;;;10.55;;
37241;SDS011;23135;51.078;12.108;2024-02-26T10:55:00;21.33;;;11.52;;
37241;SDS011;23135;51.078;12.108;2024-02-26T10:57:32;17.13;;;10.35;;
37241;SDS011;23135;51.078;12.108;2024-02-26T11:00:05;20.30;;;10.82;;
37241;SDS011;23135;51.078;12.108;2024-02-26T11:02:34;18.90;;;11.02;;
37241;SDS011;23135;51.078;12.108;2024-02-26T11:05:04;16.42;;;10.30;;
37241;SDS011;23135;51.078;12.108;2024-02-26T11:07:31;17.20;;;10.15;;
37241;SDS011;23135;51.078;12.108;2024-02-26T11:09:59;15.98;;;10.45;;
37241;SDS011;23135;51.078;12.108;2024-02-26T11:12:25;17.40;;;10.48;;
37241;SDS011;23135;51.078;12.108;2024-02-26T11:14:53;16.05;;;10.43;;
37241;SDS011;23135;51.078;12.108;2024-02-26T11:17:22;16.77;;;10.02;;
37241;SDS011;23135;51.078;12.108;2024-02-26T11:19:49;25.77;;;10.18;;
37241;SDS011;23135;51.078;12.108;2024-02-26T11:22:16;17.08;;;10.75;;
37241;SDS011;23135;51.078;12.108;2024-02-26T11:24:42;17.13;;;10.10;;
37241;SDS011;23135;51.078;12.108;2024-02-26T11:27:08;27.42;;;14.15;;
37241;SDS011;23135;51.078;12.108;2024-02-26T11:29:47;16.45;;;9.60;;
37241;SDS011;23135;51.078;12.108;2024-02-26T11:32:17;19.48;;;10.75;;
37241;SDS011;23135;51.078;12.108;2024-02-26T11:34:43;21.77;;;11.70;;
37241;SDS011;23135;51.078;12.108;2024-02-26T11:37:18;15.18;;;10.50;;
37241;SDS011;23135;51.078;12.108;2024-02-26T11:39:45;17.77;;;9.85;;
37241;SDS011;23135;51.078;12.108;2024-02-26T11:42:13;14.95;;;8.77;;
37241;SDS011;23135;51.078;12.108;2024-02-26T11:44:40;16.75;;;9.25;;
37241;SDS011;23135;51.078;12.108;2024-02-26T11:47:40;16.65;;;9.75;;
37241;SDS011;23135;51.078;12.108;2024-02-26T11:53:19;15.95;;;9.48;;
37241;SDS011;23135;51.078;12.108;2024-02-26T11:58:42;18.27;;;9.32;;
37241;SDS011;23135;51.078;12.108;2024-02-26T12:01:54;25.52;;;14.68;;
37241;SDS011;23135;51.078;12.108;2024-02-26T12:06:45;20.90;;;9.77;;
37241;SDS011;23135;51.078;12.108;2024-02-26T12:09:12;17.95;;;9.27;;
37241;SDS011;23135;51.078;12.108;2024-02-26T12:11:39;20.38;;;11.07;;
37241;SDS011;23135;51.078;12.108;2024-02-26T12:14:05;17.08;;;9.15;;
37241;SDS011;23135;51.078;12.108;2024-02-26T12:16:36;21.05;;;11.65;;
37241;SDS011;23135;51.078;12.108;2024-02-26T12:19:06;16.48;;;10.02;;
37241;SDS011;23135;51.078;12.108;2024-02-26T12:21:33;13.55;;;9.93;;
37241;SDS011;23135;51.078;12.108;2024-02-26T12:24:09;19.10;;;10.48;;
37241;SDS011;23135;51.078;12.108;2024-02-26T12:26:36;18.83;;;10.13;;
37241;SDS011;23135;51.078;12.108;2024-02-26T12:29:02;15.05;;;10.00;;
37241;SDS011;23135;51.078;12.108;2024-02-26T12:31:28;19.83;;;11.98;;
37241;SDS011;23135;51.078;12.108;2024-02-26T12:33:54;19.90;;;10.55;;
37241;SDS011;23135;51.078;12.108;2024-02-26T12:36:20;14.75;;;9.55;;
37241;SDS011;23135;51.078;12.108;2024-02-26T12:38:48;15.88;;;10.77;;
37241;SDS011;23135;51.078;12.108;2024-02-26T12:41:16;22.55;;;11.82;;
37241;SDS011;23135;51.078;12.108;2024-02-26T12:43:42;16.77;;;10.45;;
37241;SDS011;23135;51.078;12.108;2024-02-26T12:46:07;15.23;;;10.27;;
37241;SDS011;23135;51.078;12.108;2024-02-26T12:48:33;16.80;;;10.25;;
37241;SDS011;23135;51.078;12.108;2024-02-26T12:50:59;17.05;;;10.40;;
37241;SDS011;23135;51.078;12.108;2024-02-26T12:53:25;14.80;;;9.82;;
37241;SDS011;23135;51.078;12.108;2024-02-26T12:55:52;16.73;;;10.00;;
37241;SDS011;23135;51.078;12.108;2024-02-26T12:58:21;20.92;;;9.65;;
37241;SDS011;23135;51.078;12.108;2024-02-26T13:00:50;21.75;;;10.48;;
37241;SDS011;23135;51.078;12.108;2024-02-26T13:03:17;17.23;;;12.15;;
37241;SDS011;23135;51.078;12.108;2024-02-26T13:05:43;21.52;;;16.73;;
37241;SDS011;23135;51.078;12.108;2024-02-26T13:08:09;16.42;;;9.75;;
37241;SDS011;23135;51.078;12.108;2024-02-26T13:13:07;18.05;;;10.10;;
37241;SDS011;23135;51.078;12.108;2024-02-26T13:15:33;15.02;;;9.43;;
37241;SDS011;23135;51.078;12.108;2024-02-26T13:17:59;19.42;;;10.40;;
37241;SDS011;23135;51.078;12.108;2024-02-26T13:20:37;15.20;;;10.35;;
37241;SDS011;23135;51.078;12.108;2024-02-26T13:23:05;20.90;;;10.13;;
37241;SDS011;23135;51.078;12.108;2024-02-26T13:25:32;15.43;;;9.63;;
37241;SDS011;23135;51.078;12.108;2024-02-26T13:28:09;15.75;;;8.95;;
37241;SDS011;23135;51.078;12.108;2024-02-26T13:30:42;13.02;;;9.15;;
37241;SDS011;23135;51.078;12.108;2024-02-26T13:33:15;15.50;;;9.98;;
37241;SDS011;23135;51.078;12.108;2024-02-26T13:35:41;18.73;;;10.40;;
37241;SDS011;23135;51.078;12.108;2024-02-26T13:38:06;14.90;;;9.45;;
37241;SDS011;23135;51.078;12.108;2024-02-26T13:40:32;14.88;;;9.30;;
37241;SDS011;23135;51.078;12.108;2024-02-26T13:42:59;19.98;;;10.15;;
37241;SDS011;23135;51.078;12.108;2024-02-26T13:45:25;13.18;;;8.15;;
37241;SDS011;23135;51.078;12.108;2024-02-26T13:47:50;12.45;;;8.15;;
37241;SDS011;23135;51.078;12.108;2024-02-26T13:50:16;13.85;;;8.00;;
37241;SDS011;23135;51.078;12.108;2024-02-26T13:52:46;11.07;;;8.10;;
37241;SDS011;23135;51.078;12.108;2024-02-26T13:55:12;16.02;;;7.55;;
37241;SDS011;23135;51.078;12.108;2024-02-26T13:57:39;9.25;;;5.13;;
37241;SDS011;23135;51.078;12.108;2024-02-26T14:00:05;11.77;;;4.75;;
37241;SDS011;23135;51.078;12.108;2024-02-26T14:02:32;5.47;;;3.70;;
37241;SDS011;23135;51.078;12.108;2024-02-26T14:05:01;4.78;;;3.63;;
37241;SDS011;23135;51.078;12.108;2024-02-26T14:07:28;7.57;;;5.57;;
37241;SDS011;23135;51.078;12.108;2024-02-26T14:09:55;11.45;;;4.45;;
37241;SDS011;23135;51.078;12.108;2024-02-26T14:12:20;8.32;;;4.68;;
37241;SDS011;23135;51.078;12.108;2024-02-26T14:14:46;7.45;;;5.22;;
37241;SDS011;23135;51.078;12.108;2024-02-26T14:17:13;10.35;;;5.53;;
37241;SDS011;23135;51.078;12.108;2024-02-26T14:19:40;13.75;;;4.68;;